Time;durP1;ratioP1;P1;durP2;ratioP2;P2;SDS_P1;SDS_P2;PMS_P1;PMS_P2;Temp;Humidity;BMP_temperature;BMP_pressure;BME280_temperature;BME280_humidity;BME280_pressure;Samples;Min_cycle;Max_cycle;Signal;HPM_P1;HPM_P2
2022/08/31 00:06:10;;;;;;;;;;;;;;;22.97;53.45;99916.31;4476275;31;32944;-86
2022/08/31 00:08:38;;;;;;;;;;;;;;;22.99;53.09;99923.28;4457969;31;33534;-87
2022/08/31 00:11:08;;;;;;;;;;;;;;;22.68;54.60;99914.47;4481431;31;34730;-86
2022/08/31 00:13:45;;;;;;;;;;;;;;;22.74;54.17;99919.31;4499517;31;34045;-87
2022/08/31 00:16:13;;;;;;;;;;;;;;;22.76;54.47;99919.16;4489897;31;34522;-87
2022/08/31 00:18:40;;;;;;;;;;;;;;;22.79;54.47;99921.56;4473835;31;33695;-86
2022/08/31 00:21:08;;;;;;;;;;;;;;;22.43;56.12;99923.09;4489786;31;33524;-85
2022/08/31 00:23:35;;;;;;;;;;;;;;;22.59;55.43;99917.16;4463318;31;809009;-85
2022/08/31 00:26:03;;;;;;;;;;;;;;;22.70;55.16;99923.28;4477047;31;33554;-86
2022/08/31 00:28:30;;;;;;;;;;;;;;;22.68;55.34;99922.53;4489417;31;34667;-85
2022/08/31 00:30:58;;;;;;;;;;;;;;;22.77;55.22;99922.69;4463045;31;33352;-86
2022/08/31 00:33:25;;;;;;;;;;;;;;;22.73;55.30;99925.66;4488192;31;33210;-87
2022/08/31 00:35:53;;;;;;;;;;;;;;;22.70;55.39;99925.97;4465270;31;33350;-86
2022/08/31 00:38:21;;;;;;;;;;;;;;;22.70;55.24;99930.50;4467823;31;33988;-86
2022/08/31 00:40:50;;;;;;;;;;;;;;;22.67;55.36;99920.84;4491223;31;34833;-86
2022/08/31 00:43:36;;;;;;;;;;;;;;;22.52;55.67;99930.34;4480534;31;32945;-86
2022/08/31 00:46:05;;;;;;;;;;;;;;;22.46;55.83;99929.06;4488486;31;33022;-85
2022/08/31 00:48:32;;;;;;;;;;;;;;;22.41;55.93;99930.47;4454620;31;34060;-86
2022/08/31 00:51:00;;;;;;;;;;;;;;;22.58;55.25;99929.75;4467000;31;34090;-86
2022/08/31 00:53:27;;;;;;;;;;;;;;;22.41;56.05;99935.84;4490364;31;33942;-86
2022/08/31 00:55:55;;;;;;;;;;;;;;;22.44;56.03;99932.87;4464748;31;34087;-86
2022/08/31 00:58:22;;;;;;;;;;;;;;;22.36;56.25;99932.72;4467317;31;33092;-86
2022/08/31 01:00:50;;;;;;;;;;;;;;;22.43;56.04;99931.19;4468159;31;32933;-86
2022/08/31 01:03:18;;;;;;;;;;;;;;;22.09;57.58;99942.25;4463862;31;32045;-85
2022/08/31 01:05:45;;;;;;;;;;;;;;;22.23;57.10;99941.06;4490746;31;34134;-86
2022/08/31 01:08:13;;;;;;;;;;;;;;;22.29;56.77;99943.19;4490957;31;34204;-86
2022/08/31 01:10:42;;;;;;;;;;;;;;;22.31;56.69;99940.34;4467040;31;33259;-86
2022/08/31 01:13:13;;;;;;;;;;;;;;;22.07;57.56;99941.53;4477642;31;33769;-87
2022/08/31 01:15:44;;;;;;;;;;;;;;;22.12;57.62;99944.69;4480002;31;34247;-86
2022/08/31 01:18:17;;;;;;;;;;;;;;;22.09;57.50;99936.88;4476671;31;32857;-86
2022/08/31 01:20:48;;;;;;;;;;;;;;;22.17;57.18;99933.53;4488029;31;34050;-86
2022/08/31 01:23:23;;;;;;;;;;;;;;;21.80;58.24;99941.31;4461274;31;33078;-87
2022/08/31 01:25:51;;;;;;;;;;;;;;;21.83;58.12;99941.03;4466015;31;33143;-87
2022/08/31 01:28:18;;;;;;;;;;;;;;;21.88;57.99;99944.16;4491219;31;33021;-86
2022/08/31 01:31:04;;;;;;;;;;;;;;;21.88;58.09;99949.53;4492837;31;34084;-87
2022/08/31 01:33:32;;;;;;;;;;;;;;;22.04;57.27;99952.56;4501404;31;33076;-86
2022/08/31 01:36:00;;;;;;;;;;;;;;;21.68;59.15;99953.97;4478416;31;33619;-87
2022/08/31 01:38:28;;;;;;;;;;;;;;;21.82;58.23;99950.94;4476359;31;34990;-86
2022/08/31 01:40:57;;;;;;;;;;;;;;;21.62;58.72;99955.37;4478728;31;33056;-86
2022/08/31 01:43:24;;;;;;;;;;;;;;;21.44;59.35;99951.59;4466429;31;32206;-87
2022/08/31 01:45:51;;;;;;;;;;;;;;;21.62;58.67;99947.31;4464793;31;32569;-87
2022/08/31 01:48:20;;;;;;;;;;;;;;;21.66;58.47;99948.75;4479563;31;35127;-87
2022/08/31 01:50:48;;;;;;;;;;;;;;;21.54;58.91;99947.13;4464964;31;33113;-86
2022/08/31 01:53:15;;;;;;;;;;;;;;;21.42;59.24;99946.38;4465515;31;32299;-86
2022/08/31 01:55:45;;;;;;;;;;;;;;;21.51;58.97;99942.03;4479384;31;33585;-87
2022/08/31 01:58:13;;;;;;;;;;;;;;;21.43;59.10;99939.16;4461823;31;33894;-86
2022/08/31 02:00:41;;;;;;;;;;;;;;;21.11;60.24;99949.94;4481099;31;33300;-86
2022/08/31 02:03:08;;;;;;;;;;;;;;;21.35;59.43;99950.53;4480247;31;33114;-87
2022/08/31 02:05:36;;;;;;;;;;;;;;;21.35;59.33;99952.38;4482172;31;32821;-87
2022/08/31 02:08:04;;;;;;;;;;;;;;;21.35;59.54;99953.22;4478498;31;34170;-86
2022/08/31 02:10:32;;;;;;;;;;;;;;;21.39;59.45;99951.12;4476334;31;32445;-86
2022/08/31 02:12:59;;;;;;;;;;;;;;;21.43;59.30;99949.91;4464558;31;33172;-86
2022/08/31 02:15:28;;;;;;;;;;;;;;;21.45;59.25;99947.91;4495463;31;34979;-86
2022/08/31 02:17:56;;;;;;;;;;;;;;;20.99;60.55;99951.00;4493497;31;34756;-86
2022/08/31 02:20:23;;;;;;;;;;;;;;;21.12;60.20;99955.16;4467411;31;33295;-86
2022/08/31 02:22:51;;;;;;;;;;;;;;;20.94;60.72;99943.34;4492657;31;32384;-86
2022/08/31 02:25:18;;;;;;;;;;;;;;;21.01;60.50;99947.19;4468086;31;33427;-86
2022/08/31 02:27:46;;;;;;;;;;;;;;;20.94;60.80;99944.19;4476021;31;32786;-86
2022/08/31 02:30:15;;;;;;;;;;;;;;;21.12;60.34;99940.91;4479802;31;33456;-86
2022/08/31 02:32:43;;;;;;;;;;;;;;;21.00;60.56;99931.22;4493979;31;32793;-86
2022/08/31 02:35:10;;;;;;;;;;;;;;;20.95;60.59;99928.91;4480620;31;33707;-86
2022/08/31 02:37:38;;;;;;;;;;;;;;;21.04;60.30;99935.34;4479012;31;33219;-86
2022/08/31 02:40:07;;;;;;;;;;;;;;;20.91;60.46;99939.06;4479222;31;33135;-86
2022/08/31 02:42:38;;;;;;;;;;;;;;;21.17;59.62;99935.97;4479732;31;32859;-86
2022/08/31 02:45:20;;;;;;;;;;;;;;;21.11;59.50;99934.66;4480461;31;33821;-86
2022/08/31 02:47:48;;;;;;;;;;;;;;;21.33;58.65;99941.78;4466996;31;32349;-86
2022/08/31 02:50:16;;;;;;;;;;;;;;;21.11;59.58;99940.03;4480303;31;34138;-86
2022/08/31 02:52:45;;;;;;;;;;;;;;;20.99;59.95;99929.53;4466521;31;32448;-86
2022/08/31 02:55:12;;;;;;;;;;;;;;;21.03;59.98;99926.44;4476240;31;34619;-86
2022/08/31 02:57:40;;;;;;;;;;;;;;;20.93;60.27;99936.22;4466047;31;35134;-87
2022/08/31 03:00:10;;;;;;;;;;;;;;;20.89;60.60;99929.44;4477002;31;34707;-87
2022/08/31 03:02:38;;;;;;;;;;;;;;;20.75;61.26;99929.72;4478723;31;34029;-86
2022/08/31 03:05:06;;;;;;;;;;;;;;;20.91;60.63;99928.31;4479332;31;34410;-86
2022/08/31 03:07:35;;;;;;;;;;;;;;;20.93;60.51;99930.88;4465351;31;32972;-86
2022/08/31 03:10:04;;;;;;;;;;;;;;;20.79;60.85;99933.88;4491304;31;34822;-86
2022/08/31 03:12:31;;;;;;;;;;;;;;;20.87;60.52;99942.13;4477472;31;32904;-85
2022/08/31 03:14:59;;;;;;;;;;;;;;;20.90;60.51;99936.50;4479228;31;33875;-85
2022/08/31 03:17:27;;;;;;;;;;;;;;;21.03;59.95;99937.19;4478426;31;33151;-85
2022/08/31 03:20:02;;;;;;;;;;;;;;;20.95;60.25;99939.66;4493681;31;34158;-86
2022/08/31 03:22:30;;;;;;;;;;;;;;;20.82;60.87;99939.84;4479473;31;33265;-86
2022/08/31 03:24:58;;;;;;;;;;;;;;;20.89;60.51;99940.19;4478563;31;34194;-85
2022/08/31 03:27:29;;;;;;;;;;;;;;;20.75;60.89;99933.28;4491734;31;32864;-85
2022/08/31 03:29:57;;;;;;;;;;;;;;;20.89;60.63;99934.81;4475777;31;34735;-85
2022/08/31 03:32:26;;;;;;;;;;;;;;;20.85;nan;99933.37;4475046;31;34174;-86
2022/08/31 03:34:54;;;;;;;;;;;;;;;20.81;60.38;99942.66;4476242;31;34260;-86
2022/08/31 03:37:22;;;;;;;;;;;;;;;20.55;60.76;99942.13;4464746;31;33385;-86
2022/08/31 03:39:50;;;;;;;;;;;;;;;20.58;60.61;99942.72;4464905;31;32999;-86
2022/08/31 03:42:17;;;;;;;;;;;;;;;20.60;60.46;99948.81;4495351;31;33058;-86
2022/08/31 03:44:45;;;;;;;;;;;;;;;20.64;60.22;99944.06;4486857;31;34690;-86
2022/08/31 03:47:15;;;;;;;;;;;;;;;20.62;60.53;99944.19;4467523;31;33407;-85
2022/08/31 03:49:43;;;;;;;;;;;;;;;20.51;60.75;99941.56;4488998;31;33718;-85
2022/08/31 03:52:12;;;;;;;;;;;;;;;20.44;61.09;99937.63;4473724;31;33485;-85
2022/08/31 03:54:40;;;;;;;;;;;;;;;20.56;60.50;99942.03;4479518;31;33295;-87
2022/08/31 03:57:07;;;;;;;;;;;;;;;20.36;61.04;99934.72;4471102;31;34513;-87
2022/08/31 03:59:35;;;;;;;;;;;;;;;20.33;61.21;99933.16;4483172;32;33979;-87
2022/08/31 04:02:05;;;;;;;;;;;;;;;20.30;61.16;99937.91;4459858;31;31724;-87
2022/08/31 04:04:47;;;;;;;;;;;;;;;20.42;60.57;99934.25;4469818;31;36125;-85
2022/08/31 04:07:19;;;;;;;;;;;;;;;20.30;60.68;99937.91;4462472;31;34101;-85
2022/08/31 04:09:59;;;;;;;;;;;;;;;20.10;61.55;99943.06;4474319;31;34163;-87
2022/08/31 04:12:32;;;;;;;;;;;;;;;20.14;61.46;99947.22;4463842;31;32603;-87
2022/08/31 04:15:02;;;;;;;;;;;;;;;20.34;60.76;99953.63;4463051;31;34242;-85
2022/08/31 04:17:33;;;;;;;;;;;;;;;20.34;61.03;99955.47;4475320;31;34258;-85
2022/08/31 04:20:01;;;;;;;;;;;;;;;20.19;61.42;99947.69;4478372;31;32845;-84
2022/08/31 04:22:32;;;;;;;;;;;;;;;20.34;60.71;99950.09;4491573;31;33083;-85
2022/08/31 04:25:09;;;;;;;;;;;;;;;20.15;61.59;99950.75;4490321;31;33658;-85
2022/08/31 04:27:37;;;;;;;;;;;;;;;20.25;61.52;99953.53;4481208;31;34051;-87
2022/08/31 04:30:06;;;;;;;;;;;;;;;20.23;61.42;99950.97;4477562;31;32924;-87
2022/08/31 04:32:34;;;;;;;;;;;;;;;20.30;61.07;99948.63;4466149;31;32289;-85
2022/08/31 04:35:02;;;;;;;;;;;;;;;20.24;61.74;99949.16;4474214;31;32813;-85
2022/08/31 04:37:31;;;;;;;;;;;;;;;20.38;61.05;99941.69;4478518;31;35830;-86
2022/08/31 04:40:00;;;;;;;;;;;;;;;20.24;61.47;99950.00;4472448;31;34236;-86
2022/08/31 04:42:29;;;;;;;;;;;;;;;20.23;61.64;99944.78;4464756;31;33555;-87
2022/08/31 04:44:56;;;;;;;;;;;;;;;20.32;61.34;99944.00;4464454;31;32767;-86
2022/08/31 04:47:24;;;;;;;;;;;;;;;20.39;61.23;99943.38;4492067;31;34606;-85
2022/08/31 04:49:52;;;;;;;;;;;;;;;20.21;61.66;99950.22;4473417;31;33092;-86
2022/08/31 04:52:19;;;;;;;;;;;;;;;20.30;61.35;99944.12;4494286;31;33312;-87
2022/08/31 04:54:54;;;;;;;;;;;;;;;20.55;60.60;99952.84;4472059;31;32865;-86
2022/08/31 04:57:22;;;;;;;;;;;;;;;20.84;59.10;99950.44;4476437;31;34622;-87
2022/08/31 04:59:49;;;;;;;;;;;;;;;20.91;58.98;99951.62;4490157;31;33821;-86
2022/08/31 05:02:24;;;;;;;;;;;;;;;21.01;59.14;99955.25;4474006;31;33339;-87
2022/08/31 05:04:51;;;;;;;;;;;;;;;20.74;60.43;99947.66;4467498;31;33269;-86
2022/08/31 05:07:19;;;;;;;;;;;;;;;20.53;61.36;99944.94;4478650;31;33853;-85
2022/08/31 05:09:47;;;;;;;;;;;;;;;20.55;61.96;99945.66;4466514;31;34007;-85
2022/08/31 05:12:14;;;;;;;;;;;;;;;20.68;61.67;99949.03;4466048;31;32612;-86
2022/08/31 05:14:42;;;;;;;;;;;;;;;20.91;61.07;99948.94;4478508;31;33050;-86
2022/08/31 05:17:11;;;;;;;;;;;;;;;20.83;61.63;99951.41;4478310;31;33300;-86
2022/08/31 05:19:42;;;;;;;;;;;;;;;20.98;61.41;99952.78;4476333;31;32778;-86
2022/08/31 05:22:12;;;;;;;;;;;;;;;21.12;61.03;99955.16;4463743;31;32131;-86
2022/08/31 05:24:40;;;;;;;;;;;;;;;21.18;60.92;99953.81;4487784;31;34043;-86
2022/08/31 05:27:08;;;;;;;;;;;;;;;21.38;60.16;99952.12;4469461;32;33060;-86
2022/08/31 05:29:36;;;;;;;;;;;;;;;21.54;60.04;99951.66;4473182;32;34535;-86
2022/08/31 05:32:04;;;;;;;;;;;;;;;21.63;59.44;99961.59;4473290;32;34007;-86
2022/08/31 05:34:32;;;;;;;;;;;;;;;21.57;58.73;99962.97;4478925;31;33904;-85
2022/08/31 05:37:00;;;;;;;;;;;;;;;21.77;56.87;99958.53;4458719;31;33117;-85
2022/08/31 05:39:29;;;;;;;;;;;;;;;21.95;54.79;99954.25;4490032;31;33662;-85
2022/08/31 05:41:57;;;;;;;;;;;;;;;22.12;53.47;99958.13;4477056;31;33548;-85
2022/08/31 05:44:25;;;;;;;;;;;;;;;22.27;52.78;99955.09;4480014;31;33426;-84
2022/08/31 05:47:00;;;;;;;;;;;;;;;22.71;53.43;99954.56;4464152;31;32994;-84
2022/08/31 05:49:30;;;;;;;;;;;;;;;22.64;52.12;99950.72;4500897;31;33929;-84
2022/08/31 05:51:59;;;;;;;;;;;;;;;23.07;51.73;99948.63;4468225;31;33504;-85
2022/08/31 05:54:27;;;;;;;;;;;;;;;22.96;50.91;99946.94;4477735;31;32804;-84
2022/08/31 05:56:55;;;;;;;;;;;;;;;23.17;50.54;99961.13;4471993;31;33603;-84
2022/08/31 05:59:29;;;;;;;;;;;;;;;23.22;50.31;99948.06;4486710;31;33747;-85
2022/08/31 06:01:59;;;;;;;;;;;;;;;23.50;50.17;99951.69;4470919;31;32705;-87
2022/08/31 06:04:26;;;;;;;;;;;;;;;23.32;50.69;99953.44;4475059;31;33823;-87
2022/08/31 06:06:54;;;;;;;;;;;;;;;23.88;49.93;99949.88;4454803;31;33247;-86
2022/08/31 06:09:23;;;;;;;;;;;;;;;23.68;50.83;99959.88;4473869;31;34451;-86
2022/08/31 06:11:52;;;;;;;;;;;;;;;24.03;48.97;99961.03;4467439;31;32847;-86
2022/08/31 06:14:21;;;;;;;;;;;;;;;24.11;48.82;99965.66;4445773;31;33134;-86
2022/08/31 06:16:50;;;;;;;;;;;;;;;24.28;48.58;99971.09;4475789;31;33091;-87
2022/08/31 06:19:19;;;;;;;;;;;;;;;24.13;48.27;99964.53;4465533;31;32262;-86
2022/08/31 06:21:48;;;;;;;;;;;;;;;24.47;47.01;99961.22;4468088;31;33945;-86
2022/08/31 06:24:17;;;;;;;;;;;;;;;24.42;48.38;99966.22;4486405;31;33935;-86
2022/08/31 06:27:00;;;;;;;;;;;;;;;24.75;48.52;99962.84;4488130;31;34404;-87
2022/08/31 06:29:30;;;;;;;;;;;;;;;24.96;47.11;99964.38;4479684;31;32893;-86
2022/08/31 06:31:59;;;;;;;;;;;;;;;24.49;47.31;99968.16;4478226;31;31814;-86
2022/08/31 06:34:27;;;;;;;;;;;;;;;24.90;46.62;99959.62;4469363;32;33258;-85
2022/08/31 06:36:57;;;;;;;;;;;;;;;24.66;46.91;99961.09;4466251;31;35708;-86
2022/08/31 06:39:26;;;;;;;;;;;;;;;24.99;45.73;99967.62;4481754;31;34263;-87
2022/08/31 06:41:54;;;;;;;;;;;;;;;24.84;44.40;99962.94;4467847;31;32519;-86
2022/08/31 06:44:23;;;;;;;;;;;;;;;24.73;45.79;99959.44;4465723;31;32692;-85
2022/08/31 06:46:51;;;;;;;;;;;;;;;24.92;45.30;99966.53;4472688;31;33060;-85
2022/08/31 06:49:19;;;;;;;;;;;;;;;25.06;44.23;99959.75;4467230;31;32581;-86
2022/08/31 06:51:46;;;;;;;;;;;;;;;25.36;42.79;99960.38;4484676;31;33392;-86
2022/08/31 06:54:14;;;;;;;;;;;;;;;25.03;44.20;99957.38;4483845;32;33657;-85
2022/08/31 06:57:01;;;;;;;;;;;;;;;25.33;43.73;99966.06;4478362;31;34559;-85
2022/08/31 06:59:29;;;;;;;;;;;;;;;25.42;42.29;99962.44;4466051;31;34698;-85
2022/08/31 07:01:57;;;;;;;;;;;;;;;25.84;41.62;99964.41;4484503;31;33049;-84
2022/08/31 07:04:31;;;;;;;;;;;;;;;25.21;41.82;99971.75;4469317;31;33304;-85
2022/08/31 07:06:58;;;;;;;;;;;;;;;25.62;42.56;99976.56;4475170;31;34188;-85
2022/08/31 07:09:26;;;;;;;;;;;;;;;25.41;42.10;99968.84;4465264;31;33280;-85
2022/08/31 07:11:53;;;;;;;;;;;;;;;25.65;41.43;99977.13;4494133;31;32937;-86
2022/08/31 07:14:23;;;;;;;;;;;;;;;25.10;42.54;99980.06;4497271;31;34095;-84
2022/08/31 07:16:52;;;;;;;;;;;;;;;25.83;42.12;99970.81;4468697;32;34039;-85
2022/08/31 07:19:20;;;;;;;;;;;;;;;25.54;42.11;99982.78;4481081;31;33530;-84
2022/08/31 07:21:50;;;;;;;;;;;;;;;26.15;41.47;99970.97;4468391;32;32293;-85
2022/08/31 07:24:23;;;;;;;;;;;;;;;25.95;41.88;99975.78;4467228;31;33047;-85
2022/08/31 07:26:53;;;;;;;;;;;;;;;26.16;43.22;99983.50;4486624;31;33842;-85
2022/08/31 07:29:21;;;;;;;;;;;;;;;26.19;42.49;99982.31;4483400;31;35231;-85
2022/08/31 07:31:49;;;;;;;;;;;;;;;26.25;41.50;99982.53;4470284;31;32241;-84
2022/08/31 07:34:18;;;;;;;;;;;;;;;26.62;41.01;99978.56;4480227;31;31902;-84
2022/08/31 07:42:24;;;;;;;;;;;;;;;26.57;41.96;99986.34;4489915;31;33616;-84
2022/08/31 07:44:52;;;;;;;;;;;;;;;26.94;38.76;99972.38;4472046;31;33482;-84
2022/08/31 07:47:20;;;;;;;;;;;;;;;26.90;39.25;99964.75;4480554;31;34963;-85
2022/08/31 07:49:51;;;;;;;;;;;;;;;26.37;40.84;99961.41;4480915;31;34610;-87
2022/08/31 07:52:31;;;;;;;;;;;;;;;26.37;39.90;99968.69;4486719;31;33246;-85
2022/08/31 07:55:06;;;;;;;;;;;;;;;26.93;39.64;99964.41;4461396;31;34361;-86
2022/08/31 08:00:46;;;;;;;;;;;;;;;26.90;39.62;99959.31;4498513;31;34867;-86
2022/08/31 08:03:14;;;;;;;;;;;;;;;26.64;39.26;99954.91;4491454;31;33730;-85
2022/08/31 08:05:42;;;;;;;;;;;;;;;27.14;38.82;99956.66;4480036;31;33079;-86
2022/08/31 08:08:11;;;;;;;;;;;;;;;26.74;39.56;99950.16;4460539;31;34378;-85
2022/08/31 08:10:44;;;;;;;;;;;;;;;27.45;38.40;99958.66;4472134;31;32840;-86
2022/08/31 08:13:21;;;;;;;;;;;;;;;27.43;38.34;99957.97;4459856;32;32163;-86
2022/08/31 08:15:49;;;;;;;;;;;;;;;27.59;38.86;99952.53;4459717;31;34241;-86
2022/08/31 08:18:19;;;;;;;;;;;;;;;27.74;36.70;99948.13;4483189;32;34669;-86
2022/08/31 08:24:19;;;;;;;;;;;;;;;27.77;38.98;99953.19;4498072;31;33400;-86
2022/08/31 08:26:49;;;;;;;;;;;;;;;27.58;35.99;99948.09;4479261;31;33262;-86
2022/08/31 08:29:22;;;;;;;;;;;;;;;27.94;35.28;99942.28;4474396;31;32632;-86
2022/08/31 08:31:52;;;;;;;;;;;;;;;27.71;35.28;99945.72;4458464;32;34562;-90
2022/08/31 08:34:25;;;;;;;;;;;;;;;27.67;36.25;99949.78;4475436;31;32205;-89
2022/08/31 08:37:00;;;;;;;;;;;;;;;28.22;36.60;99939.94;4476021;31;34037;-88
2022/08/31 08:39:28;;;;;;;;;;;;;;;28.21;34.87;99939.09;4474265;31;33241;-89
2022/08/31 08:41:56;;;;;;;;;;;;;;;28.48;34.49;99945.06;4487533;31;32836;-87
2022/08/31 08:44:26;;;;;;;;;;;;;;;27.83;34.60;99939.94;4487428;31;33082;-88
2022/08/31 08:46:55;;;;;;;;;;;;;;;27.79;35.15;99943.00;4481134;32;33840;-88
2022/08/31 08:49:27;;;;;;;;;;;;;;;28.36;34.98;99936.50;4459303;32;33985;-88
2022/08/31 08:52:02;;;;;;;;;;;;;;;28.11;36.74;99927.63;4471430;32;32824;-88
2022/08/31 08:54:33;;;;;;;;;;;;;;;28.49;34.67;99925.91;4445906;32;32133;-88
2022/08/31 08:57:02;;;;;;;;;;;;;;;28.28;34.44;99929.22;4445682;32;32667;-88
2022/08/31 08:59:30;;;;;;;;;;;;;;;28.60;34.97;99931.94;4463837;32;34246;-89
2022/08/31 09:02:05;;;;;;;;;;;;;;;28.63;33.52;99921.56;4458739;32;34026;-88
2022/08/31 09:04:38;;;;;;;;;;;;;;;28.64;33.96;99923.25;4446561;32;31995;-89
2022/08/31 09:07:29;;;;;;;;;;;;;;;28.13;34.17;99925.56;4484235;32;34276;-88
2022/08/31 09:10:08;;;;;;;;;;;;;;;28.40;35.98;99926.13;4485668;31;34356;-85
2022/08/31 09:12:45;;;;;;;;;;;;;;;28.24;37.44;99922.44;4468016;31;32894;-85
2022/08/31 09:15:35;;;;;;;;;;;;;;;28.78;33.77;99913.47;4482617;31;31885;-85
2022/08/31 09:18:06;;;;;;;;;;;;;;;28.95;34.77;99912.31;4489669;31;33845;-85
2022/08/31 09:20:34;;;;;;;;;;;;;;;29.05;32.18;99909.34;4492296;31;33828;-85
2022/08/31 09:23:06;;;;;;;;;;;;;;;29.27;33.11;99907.63;4480677;31;33860;-85
2022/08/31 09:25:46;;;;;;;;;;;;;;;29.05;32.44;99901.19;4480429;31;33995;-85
2022/08/31 09:28:15;;;;;;;;;;;;;;;29.76;31.55;99896.22;4451341;31;34204;-85
2022/08/31 09:30:43;;;;;;;;;;;;;;;29.73;31.88;99894.75;4482917;31;35111;-85
2022/08/31 09:33:24;;;;;;;;;;;;;;;29.36;32.38;99894.78;4483218;31;33402;-85
2022/08/31 09:35:55;;;;;;;;;;;;;;;29.67;33.20;99886.47;4451164;32;32090;-85
2022/08/31 09:38:28;;;;;;;;;;;;;;;29.93;31.35;99880.53;4478053;31;32701;-85
2022/08/31 09:40:56;;;;;;;;;;;;;;;30.10;30.76;99887.47;4473251;31;35144;-86
2022/08/31 09:43:26;;;;;;;;;;;;;;;29.67;30.19;99881.88;4464992;31;34429;-85
2022/08/31 09:46:05;;;;;;;;;;;;;;;30.22;29.95;99872.31;4491981;31;32046;-85
2022/08/31 09:49:01;;;;;;;;;;;;;;;29.99;30.19;99877.06;4472759;31;33370;-85
2022/08/31 09:51:34;;;;;;;;;;;;;;;29.84;31.43;99871.63;4482173;31;33868;-85
2022/08/31 09:57:03;;;;;;;;;;;;;;;29.82;30.71;99879.16;4499111;31;34030;-85
2022/08/31 09:59:36;;;;;;;;;;;;;;;30.10;29.96;99871.13;4465534;31;33421;-85
2022/08/31 10:02:21;;;;;;;;;;;;;;;29.59;30.92;99868.38;4494960;31;33957;-86
2022/08/31 10:04:51;;;;;;;;;;;;;;;29.25;32.31;99861.59;4498476;31;34102;-85
2022/08/31 10:07:36;;;;;;;;;;;;;;;30.13;30.25;99859.88;4464449;31;31740;-85
2022/08/31 10:10:10;;;;;;;;;;;;;;;30.06;32.08;99861.66;4470787;31;35999;-85
2022/08/31 10:13:00;;;;;;;;;;;;;;;30.21;30.48;99857.03;4499502;31;33932;-85
2022/08/31 10:15:40;;;;;;;;;;;;;;;30.62;31.20;99853.66;4468408;32;34130;-88
2022/08/31 10:18:12;;;;;;;;;;;;;;;30.08;32.98;99848.69;4474102;31;32520;-89
2022/08/31 10:20:45;;;;;;;;;;;;;;;30.24;30.64;99851.22;4473845;31;33043;-89
2022/08/31 10:23:26;;;;;;;;;;;;;;;30.47;29.30;99839.25;4468472;31;33299;-88
2022/08/31 10:25:58;;;;;;;;;;;;;;;30.48;28.75;99840.94;4490876;31;33168;-88
2022/08/31 10:28:30;;;;;;;;;;;;;;;30.98;28.99;99839.94;4456176;32;31785;-89
2022/08/31 10:31:02;;;;;;;;;;;;;;;30.94;30.19;99837.81;4466628;31;32606;-89
2022/08/31 10:36:31;;;;;;;;;;;;;;;30.27;31.48;99831.72;4484457;31;33180;-89
2022/08/31 10:39:00;;;;;;;;;;;;;;;30.43;29.42;99824.34;4477548;31;33121;-86
2022/08/31 10:41:29;;;;;;;;;;;;;;;30.09;29.86;99828.56;4472534;32;32296;-85
2022/08/31 10:44:22;;;;;;;;;;;;;;;30.64;28.85;99821.59;4481738;31;33820;-85
2022/08/31 10:46:53;;;;;;;;;;;;;;;30.16;29.70;99820.53;4475877;31;33151;-85
2022/08/31 10:49:21;;;;;;;;;;;;;;;30.08;29.06;99813.28;4484008;31;33287;-85
2022/08/31 10:51:51;;;;;;;;;;;;;;;29.61;30.10;99811.88;4491267;31;34242;-85
2022/08/31 10:54:27;;;;;;;;;;;;;;;29.50;30.06;99820.50;4474883;31;33926;-85
2022/08/31 10:57:11;;;;;;;;;;;;;;;29.79;30.51;99812.31;4485266;31;33988;-85
2022/08/31 10:59:51;;;;;;;;;;;;;;;30.08;29.71;99811.41;4478569;31;33292;-85
2022/08/31 11:02:25;;;;;;;;;;;;;;;29.92;31.46;99799.91;4488466;31;34726;-86
2022/08/31 11:04:57;;;;;;;;;;;;;;;30.14;30.76;99801.63;4490384;31;34241;-85
2022/08/31 11:07:32;;;;;;;;;;;;;;;30.17;29.53;99806.69;4472798;31;32951;-85
2022/08/31 11:10:23;;;;;;;;;;;;;;;30.21;30.10;99808.00;4484261;31;32526;-86
2022/08/31 11:12:55;;;;;;;;;;;;;;;30.70;29.54;99804.47;4461525;31;32772;-85
2022/08/31 11:15:30;;;;;;;;;;;;;;;30.44;30.17;99796.06;4473010;31;34149;-86
2022/08/31 11:17:58;;;;;;;;;;;;;;;30.48;30.90;99800.94;4490056;31;34133;-86
2022/08/31 11:20:46;;;;;;;;;;;;;;;30.93;28.30;99796.06;4490186;31;33848;-85
2022/08/31 11:23:19;;;;;;;;;;;;;;;31.41;27.27;99792.63;4488024;31;34586;-86
2022/08/31 11:26:02;;;;;;;;;;;;;;;31.24;28.22;99782.03;4475713;31;33443;-86
2022/08/31 11:28:35;;;;;;;;;;;;;;;30.84;30.71;99787.19;4487750;31;33886;-86
2022/08/31 11:31:22;;;;;;;;;;;;;;;31.45;28.85;99782.97;4475886;31;32375;-86
2022/08/31 11:33:56;;;;;;;;;;;;;;;31.37;29.06;99775.81;4491897;31;34689;-86
2022/08/31 11:36:49;;;;;;;;;;;;;;;31.09;28.75;99775.81;4474661;31;34013;-86
2022/08/31 11:39:40;;;;;;;;;;;;;;;31.65;30.38;99772.16;4476921;31;34764;-86
2022/08/31 11:42:11;;;;;;;;;;;;;;;31.90;28.32;99761.53;4474776;31;33534;-86
2022/08/31 11:44:40;;;;;;;;;;;;;;;31.53;30.08;99764.56;4469728;31;34171;-86
2022/08/31 11:47:13;;;;;;;;;;;;;;;32.26;28.07;99753.81;4491189;31;33169;-86
2022/08/31 11:49:45;;;;;;;;;;;;;;;32.53;26.29;99764.81;4467616;31;34572;-86
2022/08/31 11:52:28;;;;;;;;;;;;;;;32.35;26.53;99763.50;4482788;31;32469;-86
2022/08/31 11:54:57;;;;;;;;;;;;;;;32.38;28.42;99762.28;4485518;31;33999;-86
2022/08/31 11:57:27;;;;;;;;;;;;;;;32.72;27.21;99760.38;4467816;31;33159;-86
2022/08/31 11:59:55;;;;;;;;;;;;;;;32.54;27.48;99761.03;4456337;31;34006;-86
2022/08/31 12:02:22;;;;;;;;;;;;;;;32.39;27.80;99763.97;4475981;31;32082;-86
2022/08/31 12:04:59;;;;;;;;;;;;;;;32.28;26.25;99759.91;4482008;31;34925;-86
2022/08/31 12:07:30;;;;;;;;;;;;;;;32.13;27.92;99764.72;4485053;31;34171;-86
2022/08/31 12:10:16;;;;;;;;;;;;;;;32.12;26.54;99754.88;4497629;31;34698;-86
2022/08/31 12:13:06;;;;;;;;;;;;;;;31.91;26.80;99757.78;4486837;31;31766;-87
2022/08/31 12:15:37;;;;;;;;;;;;;;;32.13;29.86;99753.81;4481555;31;34160;-87
2022/08/31 12:18:05;;;;;;;;;;;;;;;32.28;28.14;99753.59;4482173;31;34583;-86
2022/08/31 12:23:33;;;;;;;;;;;;;;;32.38;28.18;99751.34;4490150;31;33659;-86
2022/08/31 12:26:16;;;;;;;;;;;;;;;32.43;27.16;99747.97;4464687;31;33537;-85
2022/08/31 12:28:47;;;;;;;;;;;;;;;31.85;28.47;99746.59;4477946;31;34164;-86
2022/08/31 12:31:15;;;;;;;;;;;;;;;31.92;27.32;99740.34;4483170;31;32668;-85
2022/08/31 12:33:53;;;;;;;;;;;;;;;31.64;28.95;99733.09;4457713;31;31683;-86
2022/08/31 12:36:26;;;;;;;;;;;;;;;32.13;26.99;99734.69;4466490;32;33511;-86
2022/08/31 12:39:13;;;;;;;;;;;;;;;32.76;25.75;99734.28;4481331;31;34280;-86
2022/08/31 12:41:42;;;;;;;;;;;;;;;32.40;25.68;99734.75;4479377;31;33718;-86
2022/08/31 12:44:09;;;;;;;;;;;;;;;32.31;26.21;99728.59;4470544;31;33149;-86
2022/08/31 12:46:40;;;;;;;;;;;;;;;32.45;25.58;99729.47;4487302;31;34948;-86
2022/08/31 12:49:26;;;;;;;;;;;;;;;31.62;27.06;99729.75;4485791;31;37482;-85
2022/08/31 12:51:57;;;;;;;;;;;;;;;31.30;27.68;99723.94;4487053;31;34114;-86
2022/08/31 12:54:24;;;;;;;;;;;;;;;31.18;27.61;99722.78;4457590;31;31647;-86
2022/08/31 12:57:03;;;;;;;;;;;;;;;30.88;28.59;99724.13;4494168;31;34858;-86
2022/08/31 12:59:37;;;;;;;;;;;;;;;30.81;28.54;99719.47;4461192;31;33823;-86
2022/08/31 13:02:24;;;;;;;;;;;;;;;30.67;31.71;99727.69;4470039;31;33815;-88
2022/08/31 13:04:52;;;;;;;;;;;;;;;31.00;28.16;99720.63;4481415;31;32124;-86
2022/08/31 13:07:21;;;;;;;;;;;;;;;31.26;29.36;99719.91;4468398;31;33348;-85
2022/08/31 13:10:08;;;;;;;;;;;;;;;31.37;27.90;99719.34;4474221;31;33020;-85
2022/08/31 13:12:36;;;;;;;;;;;;;;;31.44;28.96;99721.28;4454914;31;33260;-85
2022/08/31 13:15:07;;;;;;;;;;;;;;;31.21;27.94;99722.41;4478109;31;33615;-85
2022/08/31 13:17:44;;;;;;;;;;;;;;;31.50;28.05;99717.72;4471404;31;33431;-85
2022/08/31 13:20:12;;;;;;;;;;;;;;;31.30;27.76;99715.75;4474092;31;33715;-84
2022/08/31 13:22:41;;;;;;;;;;;;;;;31.22;28.01;99718.63;4481705;31;33425;-86
2022/08/31 13:25:11;;;;;;;;;;;;;;;31.58;27.45;99706.63;4467697;31;32605;-85
2022/08/31 13:27:44;;;;;;;;;;;;;;;31.61;26.95;99708.94;4462862;31;32998;-86
2022/08/31 13:30:17;;;;;;;;;;;;;;;31.90;27.26;99701.47;4473736;31;34118;-85
2022/08/31 13:32:48;;;;;;;;;;;;;;;31.60;27.27;99709.97;4483883;31;34717;-84
2022/08/31 13:35:18;;;;;;;;;;;;;;;32.09;26.50;99703.37;4463340;31;32113;-85